createdAt,value
2024-02-02T00:01:04.137Z,1.90
2024-02-02T00:03:30.737Z,1.70
2024-02-02T00:05:57.473Z,2.00
2024-02-02T00:08:24.084Z,1.80
2024-02-02T00:10:50.552Z,2.30
2024-02-02T00:13:17.023Z,1.90
2024-02-02T00:15:43.635Z,1.60
2024-02-02T00:18:10.210Z,1.40
2024-02-02T00:20:36.841Z,2.20
2024-02-02T00:23:03.404Z,1.80
2024-02-02T00:25:30.019Z,2.00
2024-02-02T00:27:56.630Z,2.10
2024-02-02T00:30:23.213Z,2.20
2024-02-02T00:32:50.103Z,1.30
2024-02-02T00:35:16.793Z,1.60
2024-02-02T00:37:45.389Z,1.60
2024-02-02T00:40:11.972Z,1.30
2024-02-02T00:42:38.575Z,1.60
2024-02-02T00:45:05.779Z,1.00
2024-02-02T00:47:33.162Z,0.90
2024-02-02T00:50:01.096Z,1.60
2024-02-02T00:52:27.860Z,1.70
2024-02-02T00:54:55.472Z,1.70
2024-02-02T00:57:21.995Z,1.90
2024-02-02T00:59:49.540Z,1.70
2024-02-02T01:02:16.214Z,1.50
2024-02-02T01:04:43.531Z,1.20
2024-02-02T01:07:10.650Z,1.30
2024-02-02T01:09:40.463Z,1.10
2024-02-02T01:12:07.159Z,1.50
2024-02-02T01:14:33.780Z,1.50
2024-02-02T01:17:00.300Z,1.20
2024-02-02T01:19:26.813Z,1.50
2024-02-02T01:21:53.745Z,1.20
2024-02-02T01:24:20.281Z,1.40
2024-02-02T01:26:46.774Z,1.70
2024-02-02T01:29:13.318Z,1.70
2024-02-02T01:31:39.934Z,1.60
2024-02-02T01:34:06.551Z,1.40
2024-02-02T01:36:34.919Z,0.90
2024-02-02T01:39:01.828Z,1.30
2024-02-02T01:41:28.846Z,1.10
2024-02-02T01:43:55.532Z,1.50
2024-02-02T01:46:22.225Z,1.30
2024-02-02T01:48:49.327Z,1.40
2024-02-02T01:51:16.046Z,1.50
2024-02-02T01:53:43.921Z,1.70
2024-02-02T01:56:10.527Z,1.60
2024-02-02T01:58:37.345Z,1.60
2024-02-02T02:01:04.014Z,2.30
2024-02-02T02:03:30.765Z,2.00
2024-02-02T02:05:57.979Z,1.60
2024-02-02T02:08:24.693Z,1.70
2024-02-02T02:10:51.237Z,1.30
2024-02-02T02:13:18.274Z,1.30
2024-02-02T02:15:45.407Z,1.20
2024-02-02T02:18:12.127Z,1.40
2024-02-02T02:20:40.742Z,1.50
2024-02-02T02:23:09.848Z,2.20
2024-02-02T02:25:36.393Z,1.20
2024-02-02T02:28:02.972Z,1.30
2024-02-02T02:30:29.514Z,1.60
2024-02-02T02:32:56.093Z,1.60
2024-02-02T02:35:22.769Z,1.70
2024-02-02T02:37:49.236Z,1.40
2024-02-02T02:40:16.355Z,1.90
2024-02-02T02:42:42.904Z,1.30
2024-02-02T02:45:09.544Z,1.70
2024-02-02T02:47:51.691Z,1.40
2024-02-02T02:50:18.580Z,0.90
2024-02-02T02:52:45.091Z,1.10
2024-02-02T02:55:11.581Z,1.50
2024-02-02T02:57:38.162Z,1.30
2024-02-02T03:00:06.649Z,1.70
2024-02-02T03:02:33.167Z,1.80
2024-02-02T03:04:59.666Z,1.40
2024-02-02T03:07:26.135Z,1.50
2024-02-02T03:09:52.608Z,1.70
2024-02-02T03:12:19.206Z,1.40
2024-02-02T03:14:45.701Z,1.60
2024-02-02T03:17:12.262Z,1.50
2024-02-02T03:19:38.849Z,1.50
2024-02-02T03:22:05.616Z,1.10
2024-02-02T03:24:32.329Z,1.50
2024-02-02T03:26:58.949Z,1.30
2024-02-02T03:29:25.792Z,1.10
2024-02-02T03:31:52.330Z,1.60
2024-02-02T03:34:18.901Z,2.40
2024-02-02T03:36:45.557Z,1.40
2024-02-02T03:39:14.091Z,2.00
2024-02-02T03:41:40.698Z,1.60
2024-02-02T03:44:07.179Z,2.00
2024-02-02T03:46:33.660Z,2.10
2024-02-02T03:49:01.306Z,2.50
2024-02-02T03:51:28.023Z,1.80
2024-02-02T03:53:54.716Z,1.60
2024-02-02T03:56:21.266Z,1.70
2024-02-02T03:58:47.747Z,2.20
2024-02-02T04:01:14.230Z,2.70
2024-02-02T04:03:40.875Z,2.30
2024-02-02T04:06:07.563Z,2.10
2024-02-02T04:08:34.093Z,2.30
2024-02-02T04:11:00.684Z,2.20
2024-02-02T04:13:27.154Z,1.50
2024-02-02T04:15:53.767Z,1.40
2024-02-02T04:18:20.394Z,1.70
2024-02-02T04:20:47.046Z,2.10
2024-02-02T04:23:13.513Z,2.30
2024-02-02T04:25:39.983Z,1.90
2024-02-02T04:28:09.386Z,1.50
2024-02-02T04:30:36.751Z,1.80
2024-02-02T04:33:05.159Z,1.80
2024-02-02T04:35:36.433Z,1.60
2024-02-02T04:38:03.738Z,1.60
2024-02-02T04:40:30.562Z,1.60
2024-02-02T04:42:58.521Z,1.40
2024-02-02T04:45:25.407Z,1.80
2024-02-02T04:47:52.131Z,1.60
2024-02-02T04:50:18.760Z,1.30
2024-02-02T04:52:45.220Z,1.70
2024-02-02T04:55:13.027Z,1.60
2024-02-02T04:57:39.564Z,1.80
2024-02-02T05:00:07.167Z,1.60
2024-02-02T05:05:00.139Z,1.20
2024-02-02T05:07:26.659Z,1.10
2024-02-02T05:09:53.213Z,2.40
2024-02-02T05:12:19.755Z,1.30
2024-02-02T05:14:46.334Z,1.30
2024-02-02T05:17:12.863Z,1.40
2024-02-02T05:19:39.532Z,2.40
2024-02-02T05:22:06.196Z,5.60
2024-02-02T05:24:43.314Z,3.70
2024-02-02T05:27:13.601Z,2.90
2024-02-02T05:29:40.249Z,4.60
2024-02-02T05:32:07.328Z,3.30
2024-02-02T05:34:33.939Z,6.70
2024-02-02T05:37:01.943Z,7.30
2024-02-02T05:39:29.101Z,6.40
2024-02-02T05:41:56.666Z,2.30
2024-02-02T05:46:49.821Z,1.60
2024-02-02T05:49:16.698Z,2.20
2024-02-02T05:51:43.786Z,1.70
2024-02-02T05:54:10.648Z,3.00
2024-02-02T05:56:37.458Z,2.90
2024-02-02T05:59:04.019Z,3.30
2024-02-02T06:01:30.516Z,2.80
2024-02-02T06:03:58.010Z,2.70
2024-02-02T06:08:51.293Z,2.20
2024-02-02T06:11:17.878Z,3.90
2024-02-02T06:13:44.340Z,3.20
2024-02-02T06:16:11.471Z,4.00
2024-02-02T06:18:38.409Z,5.50
2024-02-02T06:21:05.177Z,3.90
2024-02-02T06:23:31.743Z,4.40
2024-02-02T06:25:58.985Z,5.90
2024-02-02T06:28:25.473Z,4.20
2024-02-02T06:30:52.001Z,5.70
2024-02-02T06:33:18.706Z,4.70
2024-02-02T06:35:45.755Z,3.30
2024-02-02T06:38:12.609Z,4.00
2024-02-02T06:40:40.162Z,5.40
2024-02-02T06:45:33.328Z,2.90
2024-02-02T06:47:59.914Z,1.70
2024-02-02T06:50:26.917Z,3.80
2024-02-02T06:52:53.855Z,3.40
2024-02-02T06:55:20.386Z,3.30
2024-02-02T06:57:47.368Z,3.70
2024-02-02T07:00:16.352Z,3.60
2024-02-02T07:02:44.418Z,2.90
2024-02-02T07:05:14.076Z,3.20
2024-02-02T07:07:41.981Z,3.60
2024-02-02T07:10:17.968Z,3.70
2024-02-02T07:13:01.223Z,4.20
2024-02-02T07:15:44.723Z,3.40
2024-02-02T07:18:35.103Z,3.50
2024-02-02T07:21:05.840Z,3.50
2024-02-02T07:23:37.220Z,3.50
2024-02-02T07:26:13.543Z,4.10
2024-02-02T07:28:40.368Z,4.20
2024-02-02T07:31:09.601Z,3.80
2024-02-02T07:33:44.778Z,2.60
2024-02-02T07:36:32.428Z,2.60
2024-02-02T07:38:59.819Z,4.30
2024-02-02T07:41:30.359Z,4.10
2024-02-02T07:44:00.933Z,4.10
2024-02-02T07:46:28.287Z,4.10
2024-02-02T07:48:55.666Z,4.30
2024-02-02T07:53:51.605Z,4.40
2024-02-02T07:56:19.929Z,3.90
2024-02-02T07:58:46.445Z,3.80
2024-02-02T08:01:13.241Z,3.20
2024-02-02T08:03:40.049Z,3.70
2024-02-02T08:06:07.509Z,3.60
2024-02-02T08:08:34.721Z,4.40
2024-02-02T08:11:01.475Z,2.90
2024-02-02T08:13:28.832Z,3.80
2024-02-02T08:15:56.264Z,3.60
2024-02-02T08:20:49.978Z,3.50
2024-02-02T08:23:16.725Z,3.40
2024-02-02T08:25:43.437Z,3.80
2024-02-02T08:28:10.299Z,3.40
2024-02-02T08:30:37.018Z,3.60
2024-02-02T08:33:04.254Z,4.10
2024-02-02T08:35:31.258Z,2.40
2024-02-02T08:38:02.660Z,3.30
2024-02-02T08:40:35.425Z,3.90
2024-02-02T08:43:03.148Z,3.00
2024-02-02T08:46:06.399Z,2.80
2024-02-02T08:48:40.632Z,2.90
2024-02-02T08:51:22.741Z,3.30
2024-02-02T08:53:50.340Z,3.10
2024-02-02T08:58:43.754Z,3.30
2024-02-02T09:01:35.879Z,2.60
2024-02-02T09:04:03.858Z,3.10
2024-02-02T09:06:43.106Z,3.20
2024-02-02T09:09:13.356Z,2.60
2024-02-02T09:11:40.150Z,1.90
2024-02-02T09:14:19.596Z,2.60
2024-02-02T09:16:52.442Z,2.40
2024-02-02T09:19:28.400Z,2.50
2024-02-02T09:21:58.140Z,2.60
2024-02-02T09:24:43.343Z,1.60
2024-02-02T09:27:15.311Z,1.90
2024-02-02T09:29:49.653Z,2.30
2024-02-02T09:32:17.050Z,1.90
2024-02-02T09:37:20.432Z,1.60
2024-02-02T09:39:53.639Z,1.90
2024-02-02T09:45:17.916Z,1.20
2024-02-02T09:48:08.001Z,1.50
2024-02-02T09:51:17.775Z,1.50
2024-02-02T09:54:01.934Z,2.40
2024-02-02T09:56:41.261Z,2.60
2024-02-02T09:59:55.618Z,1.70
2024-02-02T10:02:44.361Z,1.80
2024-02-02T10:05:23.990Z,1.70
2024-02-02T10:08:05.792Z,1.80
2024-02-02T10:10:39.762Z,1.80
2024-02-02T10:13:12.181Z,1.40
2024-02-02T10:15:51.083Z,2.00
2024-02-02T10:18:43.530Z,1.90
2024-02-02T10:21:26.888Z,1.80
2024-02-02T10:24:12.201Z,1.90
2024-02-02T10:27:17.559Z,2.20
2024-02-02T10:29:56.266Z,2.20
2024-02-02T10:33:04.683Z,2.40
2024-02-02T10:36:09.458Z,2.40
2024-02-02T10:38:48.229Z,2.40
2024-02-02T10:41:26.904Z,2.20
2024-02-02T10:44:22.937Z,2.30
2024-02-02T10:46:55.434Z,2.00
2024-02-02T10:49:42.086Z,2.50
2024-02-02T10:52:27.929Z,2.30
2024-02-02T10:55:31.612Z,2.40
2024-02-02T10:58:08.561Z,2.30
2024-02-02T11:00:53.838Z,2.70
2024-02-02T11:03:40.387Z,2.50
2024-02-02T11:06:38.096Z,2.30
2024-02-02T11:09:50.563Z,2.80
2024-02-02T11:12:28.057Z,3.00
2024-02-02T11:15:10.226Z,2.50
2024-02-02T11:17:51.427Z,2.90
2024-02-02T11:20:36.101Z,2.20
2024-02-02T11:23:25.652Z,2.60
2024-02-02T11:29:04.208Z,2.40
2024-02-02T11:31:42.697Z,2.60
2024-02-02T11:34:35.744Z,2.30
2024-02-02T11:37:29.286Z,2.50
2024-02-02T11:40:07.601Z,1.80
2024-02-02T11:42:37.166Z,2.50
2024-02-02T11:45:05.246Z,2.60
2024-02-02T11:47:38.816Z,2.20
2024-02-02T11:50:07.694Z,1.80
2024-02-02T11:52:48.633Z,1.80
2024-02-02T11:55:37.808Z,1.60
2024-02-02T11:58:08.385Z,1.50
2024-02-02T12:01:09.706Z,1.90
2024-02-02T12:06:17.224Z,1.80
2024-02-02T12:08:59.592Z,1.80
2024-02-02T12:11:43.890Z,1.50
2024-02-02T12:14:30.205Z,1.60
2024-02-02T12:16:56.818Z,1.20
2024-02-02T12:19:23.708Z,1.40
2024-02-02T12:24:18.317Z,1.60
2024-02-02T12:26:48.346Z,1.60
2024-02-02T12:29:19.477Z,1.20
2024-02-02T12:31:46.077Z,1.20
2024-02-02T12:34:14.085Z,1.80
2024-02-02T12:36:40.901Z,1.30
2024-02-02T12:39:08.233Z,1.30
2024-02-02T12:41:35.862Z,1.00
2024-02-02T12:44:03.207Z,1.30
2024-02-02T12:46:29.893Z,1.30
2024-02-02T12:48:57.162Z,1.10
2024-02-02T12:51:24.595Z,1.50
2024-02-02T12:53:51.467Z,1.30
2024-02-02T12:56:19.153Z,1.40
2024-02-02T12:58:46.064Z,1.20
2024-02-02T13:01:13.005Z,1.30
2024-02-02T13:03:44.379Z,1.30
2024-02-02T13:06:12.753Z,1.60
2024-02-02T13:08:39.561Z,1.60
2024-02-02T13:11:10.022Z,1.40
2024-02-02T13:13:38.116Z,1.50
2024-02-02T13:16:07.178Z,1.30
2024-02-02T13:18:39.923Z,1.20
2024-02-02T13:21:30.037Z,1.30
2024-02-02T13:23:57.561Z,1.60
2024-02-02T13:26:40.116Z,1.40
2024-02-02T13:29:11.268Z,1.40
2024-02-02T13:31:42.024Z,1.60
2024-02-02T13:34:14.293Z,1.10
2024-02-02T13:36:45.419Z,1.30
2024-02-02T13:39:20.185Z,1.40
2024-02-02T13:41:47.860Z,1.70
2024-02-02T13:44:18.239Z,1.50
2024-02-02T13:46:46.387Z,1.40
2024-02-02T13:49:23.839Z,1.30
2024-02-02T13:51:50.913Z,1.50
2024-02-02T13:54:19.066Z,1.30
2024-02-02T13:56:46.015Z,1.30
2024-02-02T13:59:21.917Z,2.00
2024-02-02T14:01:48.687Z,2.10
2024-02-02T14:04:28.187Z,1.80
2024-02-02T14:06:54.978Z,1.80
2024-02-02T14:09:25.658Z,1.70
2024-02-02T14:12:02.475Z,1.70
2024-02-02T14:14:29.799Z,1.60
2024-02-02T14:22:08.196Z,1.40
2024-02-02T14:24:46.824Z,1.50
2024-02-02T14:27:13.763Z,1.70
2024-02-02T14:29:42.469Z,1.60
2024-02-02T14:32:09.772Z,1.90
2024-02-02T14:34:36.384Z,2.00
2024-02-02T14:37:09.729Z,2.00
2024-02-02T14:39:36.610Z,1.70
2024-02-02T14:42:04.091Z,1.80
2024-02-02T14:44:30.700Z,1.90
2024-02-02T14:46:58.154Z,1.70
2024-02-02T14:49:26.986Z,1.90
2024-02-02T14:51:55.107Z,1.70
2024-02-02T14:54:22.381Z,2.10
2024-02-02T14:56:49.355Z,1.90
2024-02-02T14:59:22.008Z,1.90
2024-02-02T15:01:49.303Z,1.80
2024-02-02T15:04:17.496Z,1.70
2024-02-02T15:06:45.103Z,1.60
2024-02-02T15:09:15.562Z,1.30
2024-02-02T15:11:43.387Z,1.60
2024-02-02T15:14:10.944Z,1.70
2024-02-02T15:16:37.984Z,1.40
2024-02-02T15:19:07.330Z,1.10
2024-02-02T15:21:34.251Z,1.40
2024-02-02T15:24:01.482Z,1.90
2024-02-02T15:26:28.312Z,1.50
2024-02-02T15:28:54.870Z,1.50
2024-02-02T15:31:21.617Z,1.30
2024-02-02T15:33:48.520Z,1.60
2024-02-02T15:36:15.469Z,1.80
2024-02-02T15:38:59.891Z,1.40
2024-02-02T15:41:29.561Z,1.70
2024-02-02T15:43:56.732Z,1.80
2024-02-02T15:46:25.278Z,1.70
2024-02-02T15:48:52.717Z,1.70
2024-02-02T15:51:20.107Z,1.70
2024-02-02T15:53:47.894Z,2.00
2024-02-02T15:56:18.953Z,1.40
2024-02-02T15:58:45.714Z,1.30
2024-02-02T16:01:13.464Z,1.70
2024-02-02T16:03:41.806Z,1.30
2024-02-02T16:06:10.459Z,1.20
2024-02-02T16:08:37.709Z,1.00
2024-02-02T16:11:11.518Z,1.30
2024-02-02T16:13:37.957Z,1.50
2024-02-02T16:16:09.179Z,1.30
2024-02-02T16:18:36.634Z,2.20
2024-02-02T16:21:06.548Z,1.40
2024-02-02T16:23:33.171Z,1.50
2024-02-02T16:26:00.350Z,1.30
2024-02-02T16:30:53.616Z,0.80
2024-02-02T16:33:21.705Z,1.40
2024-02-02T16:35:48.398Z,1.30
2024-02-02T16:38:16.117Z,1.30
2024-02-02T16:40:42.833Z,2.10
2024-02-02T16:43:09.482Z,1.90
2024-02-02T16:45:36.150Z,1.40
2024-02-02T16:48:03.269Z,1.40
2024-02-02T16:50:29.825Z,2.00
2024-02-02T16:52:56.320Z,1.50
2024-02-02T16:55:22.820Z,1.70
2024-02-02T16:57:49.360Z,1.80
2024-02-02T17:00:16.264Z,1.80
2024-02-02T17:02:42.816Z,1.70
2024-02-02T17:05:09.434Z,1.40
2024-02-02T17:07:41.418Z,1.70
2024-02-02T17:10:08.872Z,1.60
2024-02-02T17:12:38.997Z,2.00
2024-02-02T17:15:14.042Z,1.20
2024-02-02T17:17:41.787Z,1.70
2024-02-02T17:20:11.466Z,1.30
2024-02-02T17:22:43.885Z,1.60
2024-02-02T17:25:11.771Z,1.30
2024-02-02T17:27:38.988Z,1.40
2024-02-02T17:30:06.714Z,1.10
2024-02-02T17:32:39.297Z,0.80
2024-02-02T17:37:34.468Z,1.40
2024-02-02T17:40:01.613Z,1.10
2024-02-02T17:42:28.189Z,2.20
2024-02-02T17:44:54.664Z,2.50
2024-02-02T17:47:22.579Z,3.80
2024-02-02T17:49:52.126Z,1.50
2024-02-02T17:52:22.258Z,3.10
2024-02-02T17:54:48.831Z,3.50
2024-02-02T17:57:15.408Z,3.50
2024-02-02T17:59:42.458Z,1.90
2024-02-02T18:02:10.351Z,2.60
2024-02-02T18:04:37.108Z,2.10
2024-02-02T18:07:04.247Z,2.00
2024-02-02T18:09:30.982Z,2.10
2024-02-02T18:11:57.609Z,1.30
2024-02-02T18:14:27.813Z,1.70
2024-02-02T18:16:55.415Z,2.10
2024-02-02T18:19:22.002Z,2.20
2024-02-02T18:21:48.752Z,2.00
2024-02-02T18:24:15.484Z,2.00
2024-02-02T18:26:41.999Z,2.50
2024-02-02T18:29:08.494Z,2.10
2024-02-02T18:31:34.972Z,1.90
2024-02-02T18:34:02.484Z,1.60
2024-02-02T18:36:29.208Z,1.90
2024-02-02T18:38:55.682Z,2.20
2024-02-02T18:41:28.486Z,1.30
2024-02-02T18:43:55.544Z,1.70
2024-02-02T18:46:29.496Z,1.60
2024-02-02T18:48:57.283Z,2.00
2024-02-02T18:51:24.782Z,1.90
2024-02-02T18:53:51.480Z,1.80
2024-02-02T18:56:18.149Z,1.90
2024-02-02T18:58:46.815Z,1.70
2024-02-02T19:01:25.621Z,1.90
2024-02-02T19:03:53.021Z,2.00
2024-02-02T19:06:19.807Z,2.00
2024-02-02T19:08:46.465Z,2.00
2024-02-02T19:11:14.286Z,1.90
2024-02-02T19:13:40.834Z,1.60
2024-02-02T19:16:24.474Z,1.90
2024-02-02T19:18:53.237Z,1.80
2024-02-02T19:21:30.245Z,1.60
2024-02-02T19:23:58.245Z,2.30
2024-02-02T19:26:24.876Z,1.50
2024-02-02T19:28:52.855Z,2.10
2024-02-02T19:31:20.044Z,1.90
2024-02-02T19:36:27.988Z,1.70
2024-02-02T19:38:56.186Z,2.00
2024-02-02T19:41:29.333Z,1.90
2024-02-02T19:43:56.446Z,2.50
2024-02-02T19:46:25.979Z,1.70
2024-02-02T19:48:54.451Z,2.00
2024-02-02T19:51:22.611Z,1.70
2024-02-02T19:53:49.675Z,1.80
2024-02-02T19:56:16.502Z,1.70
2024-02-02T19:58:50.002Z,2.00
2024-02-02T20:01:22.809Z,1.80
2024-02-02T20:03:51.904Z,1.70
2024-02-02T20:06:20.353Z,1.80
2024-02-02T20:08:48.845Z,2.00
2024-02-02T20:11:20.953Z,1.90
2024-02-02T20:13:48.604Z,1.60
2024-02-02T20:16:17.571Z,1.60
2024-02-02T20:18:44.873Z,1.70
2024-02-02T20:23:42.266Z,2.00
2024-02-02T20:26:09.583Z,2.10
2024-02-02T20:31:04.261Z,2.00
2024-02-02T20:33:30.951Z,1.60
2024-02-02T20:35:57.788Z,1.70
2024-02-02T20:38:24.429Z,1.90
2024-02-02T20:40:51.073Z,1.70
2024-02-02T20:43:17.566Z,2.00
2024-02-02T20:45:44.290Z,1.60
2024-02-02T20:48:11.206Z,1.40
2024-02-02T20:50:38.633Z,1.30
2024-02-02T20:53:05.310Z,1.60
2024-02-02T20:55:31.821Z,1.40
2024-02-02T20:58:02.236Z,1.40
2024-02-02T21:00:29.657Z,1.40
2024-02-02T21:02:56.539Z,1.80
2024-02-02T21:05:25.258Z,1.60
2024-02-02T21:07:53.157Z,1.50
2024-02-02T21:10:20.481Z,1.20
2024-02-02T21:12:47.543Z,1.30
2024-02-02T21:15:15.514Z,1.30
2024-02-02T21:17:46.248Z,1.30
2024-02-02T21:20:14.002Z,1.30
2024-02-02T21:22:40.738Z,1.40
2024-02-02T21:25:08.887Z,1.50
2024-02-02T21:27:35.619Z,1.50
2024-02-02T21:30:02.190Z,1.40
2024-02-02T21:32:28.668Z,1.50
2024-02-02T21:34:55.247Z,1.20
2024-02-02T21:37:21.939Z,1.30
2024-02-02T21:39:48.575Z,1.20
2024-02-02T21:42:15.111Z,0.80
2024-02-02T21:44:41.683Z,1.00
2024-02-02T21:47:08.155Z,1.10
2024-02-02T21:49:34.754Z,1.30
2024-02-02T21:52:01.334Z,1.20
2024-02-02T21:54:29.082Z,1.00
2024-02-02T21:56:55.768Z,0.80
2024-02-02T21:59:22.250Z,0.90
2024-02-02T22:01:48.751Z,1.00
2024-02-02T22:04:17.633Z,1.10
2024-02-02T22:06:44.304Z,0.90
2024-02-02T22:09:10.837Z,0.80
2024-02-02T22:11:37.418Z,1.20
2024-02-02T22:14:04.080Z,1.20
2024-02-02T22:16:33.021Z,1.40
2024-02-02T22:19:02.516Z,1.40
2024-02-02T22:21:30.109Z,1.00
2024-02-02T22:23:56.736Z,0.90
2024-02-02T22:26:23.201Z,1.60
2024-02-02T22:28:50.118Z,1.10
2024-02-02T22:31:23.367Z,1.10
2024-02-02T22:36:21.997Z,1.60
2024-02-02T22:38:51.248Z,1.50
2024-02-02T22:41:32.171Z,1.00
2024-02-02T22:44:00.845Z,1.10
2024-02-02T22:46:31.102Z,1.60
2024-02-02T22:48:58.213Z,1.20
2024-02-02T22:51:24.966Z,1.20
2024-02-02T22:53:51.789Z,1.20
2024-02-02T22:56:18.367Z,1.20
2024-02-02T22:58:44.819Z,1.50
2024-02-02T23:01:12.001Z,1.60
2024-02-02T23:03:38.829Z,1.40
2024-02-02T23:06:07.115Z,1.30
2024-02-02T23:08:33.756Z,1.20
2024-02-02T23:11:00.299Z,1.10
2024-02-02T23:13:26.886Z,1.40
2024-02-02T23:15:54.899Z,1.50
2024-02-02T23:18:22.838Z,1.70
2024-02-02T23:20:50.029Z,1.60
2024-02-02T23:23:20.155Z,1.90
2024-02-02T23:25:47.032Z,1.80
2024-02-02T23:28:13.959Z,1.20
2024-02-02T23:30:41.086Z,1.90
2024-02-02T23:33:07.981Z,1.40
2024-02-02T23:35:34.711Z,2.00
2024-02-02T23:38:01.241Z,1.40
2024-02-02T23:40:28.131Z,1.50
2024-02-02T23:42:54.642Z,1.40
2024-02-02T23:45:21.248Z,1.60
2024-02-02T23:47:47.915Z,1.20
2024-02-02T23:50:14.688Z,2.50
2024-02-02T23:52:41.332Z,1.90
2024-02-02T23:55:08.464Z,1.80
2024-02-02T23:57:35.289Z,1.40
